sensor_id;sensor_type;location;lat;lon;timestamp;temperature;humidity
42365;DHT22;28498;54.400;18.566;2023-02-01T00:00:16;2.70;99.90
42365;DHT22;28498;54.400;18.566;2023-02-01T00:02:43;2.70;99.90
42365;DHT22;28498;54.400;18.566;2023-02-01T00:05:10;2.80;99.90
42365;DHT22;28498;54.400;18.566;2023-02-01T00:07:38;2.80;99.90
42365;DHT22;28498;54.400;18.566;2023-02-01T00:10:06;2.80;99.90
42365;DHT22;28498;54.400;18.566;2023-02-01T00:12:33;2.80;99.90
42365;DHT22;28498;54.400;18.566;2023-02-01T00:15:00;2.80;99.90
42365;DHT22;28498;54.400;18.566;2023-02-01T00:17:27;2.70;99.90
42365;DHT22;28498;54.400;18.566;2023-02-01T00:19:54;2.70;99.90
42365;DHT22;28498;54.400;18.566;2023-02-01T00:22:21;2.70;99.90
42365;DHT22;28498;54.400;18.566;2023-02-01T00:24:48;2.70;99.90
42365;DHT22;28498;54.400;18.566;2023-02-01T00:27:15;2.60;99.90
42365;DHT22;28498;54.400;18.566;2023-02-01T00:29:46;2.70;99.90
42365;DHT22;28498;54.400;18.566;2023-02-01T00:32:14;2.70;99.90
42365;DHT22;28498;54.400;18.566;2023-02-01T00:34:41;2.70;99.90
42365;DHT22;28498;54.400;18.566;2023-02-01T00:37:08;2.70;99.90
42365;DHT22;28498;54.400;18.566;2023-02-01T00:39:35;2.60;99.90
42365;DHT22;28498;54.400;18.566;2023-02-01T00:42:02;2.60;99.90
42365;DHT22;28498;54.400;18.566;2023-02-01T00:44:29;2.70;99.90
42365;DHT22;28498;54.400;18.566;2023-02-01T00:47:00;2.70;99.90
42365;DHT22;28498;54.400;18.566;2023-02-01T00:49:28;2.60;99.90
42365;DHT22;28498;54.400;18.566;2023-02-01T00:51:55;2.70;99.90
42365;DHT22;28498;54.400;18.566;2023-02-01T00:54:22;2.70;99.90
42365;DHT22;28498;54.400;18.566;2023-02-01T00:56:49;2.70;99.90
42365;DHT22;28498;54.400;18.566;2023-02-01T00:59:16;2.60;99.90
42365;DHT22;28498;54.400;18.566;2023-02-01T01:01:43;2.60;99.90
42365;DHT22;28498;54.400;18.566;2023-02-01T01:04:10;2.50;99.90
42365;DHT22;28498;54.400;18.566;2023-02-01T01:06:37;2.50;99.90
42365;DHT22;28498;54.400;18.566;2023-02-01T01:09:06;2.60;99.90
42365;DHT22;28498;54.400;18.566;2023-02-01T01:11:36;2.60;99.90
42365;DHT22;28498;54.400;18.566;2023-02-01T01:14:05;2.60;99.90
42365;DHT22;28498;54.400;18.566;2023-02-01T01:16:33;2.60;99.90
42365;DHT22;28498;54.400;18.566;2023-02-01T01:19:00;2.60;99.90
42365;DHT22;28498;54.400;18.566;2023-02-01T01:21:28;2.60;99.90
42365;DHT22;28498;54.400;18.566;2023-02-01T01:23:55;2.50;99.90
42365;DHT22;28498;54.400;18.566;2023-02-01T01:26:24;2.50;99.90
42365;DHT22;28498;54.400;18.566;2023-02-01T01:28:52;2.50;99.90
42365;DHT22;28498;54.400;18.566;2023-02-01T01:31:21;2.50;99.90
42365;DHT22;28498;54.400;18.566;2023-02-01T01:33:50;2.50;99.90
42365;DHT22;28498;54.400;18.566;2023-02-01T01:36:17;2.40;99.90
42365;DHT22;28498;54.400;18.566;2023-02-01T01:38:44;2.60;99.90
42365;DHT22;28498;54.400;18.566;2023-02-01T01:41:28;2.60;99.90
42365;DHT22;28498;54.400;18.566;2023-02-01T01:44:05;2.70;99.90
42365;DHT22;28498;54.400;18.566;2023-02-01T01:46:35;2.80;99.90
42365;DHT22;28498;54.400;18.566;2023-02-01T01:49:14;2.80;99.90
42365;DHT22;28498;54.400;18.566;2023-02-01T01:51:51;2.70;99.90
42365;DHT22;28498;54.400;18.566;2023-02-01T01:54:27;2.70;99.90
42365;DHT22;28498;54.400;18.566;2023-02-01T01:57:00;2.70;99.90
42365;DHT22;28498;54.400;18.566;2023-02-01T01:59:31;2.60;99.90
42365;DHT22;28498;54.400;18.566;2023-02-01T02:01:59;2.60;99.90
42365;DHT22;28498;54.400;18.566;2023-02-01T02:04:26;2.60;99.90
42365;DHT22;28498;54.400;18.566;2023-02-01T02:07:21;2.60;99.90
42365;DHT22;28498;54.400;18.566;2023-02-01T02:09:49;2.50;99.90
42365;DHT22;28498;54.400;18.566;2023-02-01T02:12:26;2.60;99.90
42365;DHT22;28498;54.400;18.566;2023-02-01T02:14:54;2.50;99.90
42365;DHT22;28498;54.400;18.566;2023-02-01T02:20:58;2.60;99.90
42365;DHT22;28498;54.400;18.566;2023-02-01T02:29:16;2.70;99.90
42365;DHT22;28498;54.400;18.566;2023-02-01T02:34:52;2.80;99.90
42365;DHT22;28498;54.400;18.566;2023-02-01T02:40:14;2.80;99.90
42365;DHT22;28498;54.400;18.566;2023-02-01T02:48:43;2.80;99.90
42365;DHT22;28498;54.400;18.566;2023-02-01T02:51:45;2.80;99.90
42365;DHT22;28498;54.400;18.566;2023-02-01T02:54:26;2.70;99.90
42365;DHT22;28498;54.400;18.566;2023-02-01T02:57:36;2.90;99.90
42365;DHT22;28498;54.400;18.566;2023-02-01T03:00:29;2.70;99.90
42365;DHT22;28498;54.400;18.566;2023-02-01T03:03:16;2.60;99.90
42365;DHT22;28498;54.400;18.566;2023-02-01T03:06:02;2.40;99.90
42365;DHT22;28498;54.400;18.566;2023-02-01T03:08:30;2.30;99.90
42365;DHT22;28498;54.400;18.566;2023-02-01T03:11:12;2.20;99.90
42365;DHT22;28498;54.400;18.566;2023-02-01T03:13:52;2.40;99.90
42365;DHT22;28498;54.400;18.566;2023-02-01T03:16:32;2.40;99.90
42365;DHT22;28498;54.400;18.566;2023-02-01T03:21:50;2.40;99.90
42365;DHT22;28498;54.400;18.566;2023-02-01T03:24:23;2.50;99.90
42365;DHT22;28498;54.400;18.566;2023-02-01T03:32:38;2.50;99.90
42365;DHT22;28498;54.400;18.566;2023-02-01T03:38:03;2.50;99.90
42365;DHT22;28498;54.400;18.566;2023-02-01T03:40:36;2.50;99.90
42365;DHT22;28498;54.400;18.566;2023-02-01T03:43:05;2.50;99.90
42365;DHT22;28498;54.400;18.566;2023-02-01T03:45:41;2.60;99.90
42365;DHT22;28498;54.400;18.566;2023-02-01T03:48:12;2.60;99.90
42365;DHT22;28498;54.400;18.566;2023-02-01T03:50:44;2.50;99.90
42365;DHT22;28498;54.400;18.566;2023-02-01T03:53:16;2.50;99.90
42365;DHT22;28498;54.400;18.566;2023-02-01T03:55:44;2.50;99.90
42365;DHT22;28498;54.400;18.566;2023-02-01T03:58:16;2.50;99.90
42365;DHT22;28498;54.400;18.566;2023-02-01T04:00:56;2.50;99.90
42365;DHT22;28498;54.400;18.566;2023-02-01T04:03:24;2.50;99.90
42365;DHT22;28498;54.400;18.566;2023-02-01T04:05:52;2.40;99.90
42365;DHT22;28498;54.400;18.566;2023-02-01T04:08:20;2.30;99.90
42365;DHT22;28498;54.400;18.566;2023-02-01T04:10:47;2.20;99.90
42365;DHT22;28498;54.400;18.566;2023-02-01T04:13:14;2.20;99.90
42365;DHT22;28498;54.400;18.566;2023-02-01T04:15:41;2.20;99.90
42365;DHT22;28498;54.400;18.566;2023-02-01T04:18:08;2.30;99.90
42365;DHT22;28498;54.400;18.566;2023-02-01T04:20:35;2.30;99.90
42365;DHT22;28498;54.400;18.566;2023-02-01T04:23:02;2.30;99.90
42365;DHT22;28498;54.400;18.566;2023-02-01T04:25:29;2.40;99.90
42365;DHT22;28498;54.400;18.566;2023-02-01T04:27:56;2.60;99.90
42365;DHT22;28498;54.400;18.566;2023-02-01T04:30:23;2.70;99.90
42365;DHT22;28498;54.400;18.566;2023-02-01T04:32:51;2.70;99.90
42365;DHT22;28498;54.400;18.566;2023-02-01T04:35:18;2.70;99.90
42365;DHT22;28498;54.400;18.566;2023-02-01T04:37:45;2.80;99.90
42365;DHT22;28498;54.400;18.566;2023-02-01T04:40:12;2.90;99.90
42365;DHT22;28498;54.400;18.566;2023-02-01T04:42:39;2.90;99.90
42365;DHT22;28498;54.400;18.566;2023-02-01T04:45:06;2.90;99.90
42365;DHT22;28498;54.400;18.566;2023-02-01T04:47:35;2.90;99.90
42365;DHT22;28498;54.400;18.566;2023-02-01T04:50:02;2.80;99.90
42365;DHT22;28498;54.400;18.566;2023-02-01T04:52:29;2.80;99.90
42365;DHT22;28498;54.400;18.566;2023-02-01T04:54:56;2.70;99.90
42365;DHT22;28498;54.400;18.566;2023-02-01T04:57:26;2.70;99.90
42365;DHT22;28498;54.400;18.566;2023-02-01T04:59:53;2.60;99.90
42365;DHT22;28498;54.400;18.566;2023-02-01T05:02:20;2.60;99.90
42365;DHT22;28498;54.400;18.566;2023-02-01T05:04:47;2.60;99.90
42365;DHT22;28498;54.400;18.566;2023-02-01T05:07:14;2.60;99.90
42365;DHT22;28498;54.400;18.566;2023-02-01T05:09:41;2.60;99.90
42365;DHT22;28498;54.400;18.566;2023-02-01T05:12:09;2.50;99.90
42365;DHT22;28498;54.400;18.566;2023-02-01T05:14:54;2.50;99.90
42365;DHT22;28498;54.400;18.566;2023-02-01T05:17:21;2.60;99.90
42365;DHT22;28498;54.400;18.566;2023-02-01T05:19:48;2.70;99.90
42365;DHT22;28498;54.400;18.566;2023-02-01T05:22:15;2.60;99.90
42365;DHT22;28498;54.400;18.566;2023-02-01T05:24:42;2.60;99.90
42365;DHT22;28498;54.400;18.566;2023-02-01T05:27:09;2.50;99.90
42365;DHT22;28498;54.400;18.566;2023-02-01T05:29:36;2.50;99.90
42365;DHT22;28498;54.400;18.566;2023-02-01T05:32:03;2.40;99.90
42365;DHT22;28498;54.400;18.566;2023-02-01T05:34:47;2.30;99.90
42365;DHT22;28498;54.400;18.566;2023-02-01T05:37:14;2.30;99.90
42365;DHT22;28498;54.400;18.566;2023-02-01T05:39:41;2.20;99.90
42365;DHT22;28498;54.400;18.566;2023-02-01T05:42:08;2.20;99.90
42365;DHT22;28498;54.400;18.566;2023-02-01T05:44:35;2.20;99.90
42365;DHT22;28498;54.400;18.566;2023-02-01T05:47:02;2.10;99.90
42365;DHT22;28498;54.400;18.566;2023-02-01T05:49:29;2.10;99.90
42365;DHT22;28498;54.400;18.566;2023-02-01T05:51:56;2.10;99.90
42365;DHT22;28498;54.400;18.566;2023-02-01T05:54:26;2.10;99.90
42365;DHT22;28498;54.400;18.566;2023-02-01T05:56:53;2.10;99.90
42365;DHT22;28498;54.400;18.566;2023-02-01T05:59:20;2.20;99.90
42365;DHT22;28498;54.400;18.566;2023-02-01T06:01:47;2.20;99.90
42365;DHT22;28498;54.400;18.566;2023-02-01T06:04:14;2.30;99.90
42365;DHT22;28498;54.400;18.566;2023-02-01T06:06:41;2.40;99.90
42365;DHT22;28498;54.400;18.566;2023-02-01T06:09:08;2.50;99.90
42365;DHT22;28498;54.400;18.566;2023-02-01T06:11:35;2.50;99.90
42365;DHT22;28498;54.400;18.566;2023-02-01T06:14:02;2.70;99.90
42365;DHT22;28498;54.400;18.566;2023-02-01T06:16:29;2.80;99.90
42365;DHT22;28498;54.400;18.566;2023-02-01T06:18:58;2.80;99.90
42365;DHT22;28498;54.400;18.566;2023-02-01T06:21:25;3.10;99.90
42365;DHT22;28498;54.400;18.566;2023-02-01T06:23:53;3.20;99.90
42365;DHT22;28498;54.400;18.566;2023-02-01T06:26:21;3.20;99.90
42365;DHT22;28498;54.400;18.566;2023-02-01T06:28:48;3.20;99.90
42365;DHT22;28498;54.400;18.566;2023-02-01T06:31:15;3.20;99.90
42365;DHT22;28498;54.400;18.566;2023-02-01T06:33:42;3.20;99.90
42365;DHT22;28498;54.400;18.566;2023-02-01T06:36:10;3.30;99.90
42365;DHT22;28498;54.400;18.566;2023-02-01T06:38:39;3.30;99.90
42365;DHT22;28498;54.400;18.566;2023-02-01T06:41:06;3.20;99.90
42365;DHT22;28498;54.400;18.566;2023-02-01T06:43:33;3.30;99.90
42365;DHT22;28498;54.400;18.566;2023-02-01T06:46:02;3.20;99.90
42365;DHT22;28498;54.400;18.566;2023-02-01T06:48:30;3.20;99.90
42365;DHT22;28498;54.400;18.566;2023-02-01T06:50:57;3.20;99.90
42365;DHT22;28498;54.400;18.566;2023-02-01T06:53:24;3.10;99.90
42365;DHT22;28498;54.400;18.566;2023-02-01T06:55:55;3.10;99.90
42365;DHT22;28498;54.400;18.566;2023-02-01T06:58:23;3.10;99.90
42365;DHT22;28498;54.400;18.566;2023-02-01T07:00:50;3.10;99.90
42365;DHT22;28498;54.400;18.566;2023-02-01T07:03:17;3.10;99.90
42365;DHT22;28498;54.400;18.566;2023-02-01T07:05:44;3.20;99.90
42365;DHT22;28498;54.400;18.566;2023-02-01T07:08:11;3.20;99.90
42365;DHT22;28498;54.400;18.566;2023-02-01T07:10:38;3.20;99.90
42365;DHT22;28498;54.400;18.566;2023-02-01T07:13:06;3.30;99.90
42365;DHT22;28498;54.400;18.566;2023-02-01T07:15:33;3.30;99.90
42365;DHT22;28498;54.400;18.566;2023-02-01T07:18:00;3.20;99.90
42365;DHT22;28498;54.400;18.566;2023-02-01T07:20:27;3.30;99.90
42365;DHT22;28498;54.400;18.566;2023-02-01T07:22:57;3.30;99.90
42365;DHT22;28498;54.400;18.566;2023-02-01T07:25:24;3.30;99.90
42365;DHT22;28498;54.400;18.566;2023-02-01T07:27:51;3.30;99.90
42365;DHT22;28498;54.400;18.566;2023-02-01T07:30:18;3.40;99.90
42365;DHT22;28498;54.400;18.566;2023-02-01T07:32:46;3.40;99.90
42365;DHT22;28498;54.400;18.566;2023-02-01T07:35:13;3.60;99.90
42365;DHT22;28498;54.400;18.566;2023-02-01T07:37:41;3.50;99.90
42365;DHT22;28498;54.400;18.566;2023-02-01T07:40:09;3.60;99.90
42365;DHT22;28498;54.400;18.566;2023-02-01T07:42:36;3.80;99.90
42365;DHT22;28498;54.400;18.566;2023-02-01T07:45:03;3.60;99.90
42365;DHT22;28498;54.400;18.566;2023-02-01T07:47:47;3.60;99.90
42365;DHT22;28498;54.400;18.566;2023-02-01T07:54:02;3.80;99.90
42365;DHT22;28498;54.400;18.566;2023-02-01T07:56:29;3.80;99.90
42365;DHT22;28498;54.400;18.566;2023-02-01T08:02:44;3.80;99.90
42365;DHT22;28498;54.400;18.566;2023-02-01T08:05:11;3.90;99.90
42365;DHT22;28498;54.400;18.566;2023-02-01T08:07:38;3.90;99.90
42365;DHT22;28498;54.400;18.566;2023-02-01T08:10:05;4.10;99.90
42365;DHT22;28498;54.400;18.566;2023-02-01T08:12:37;4.30;99.90
42365;DHT22;28498;54.400;18.566;2023-02-01T08:15:05;4.30;99.90
42365;DHT22;28498;54.400;18.566;2023-02-01T08:17:32;4.30;99.90
42365;DHT22;28498;54.400;18.566;2023-02-01T08:20:00;4.30;99.90
42365;DHT22;28498;54.400;18.566;2023-02-01T08:22:31;4.40;99.90
42365;DHT22;28498;54.400;18.566;2023-02-01T08:24:59;4.40;99.90
42365;DHT22;28498;54.400;18.566;2023-02-01T08:27:28;4.40;99.90
42365;DHT22;28498;54.400;18.566;2023-02-01T08:29:55;4.50;99.90
42365;DHT22;28498;54.400;18.566;2023-02-01T08:32:22;4.60;99.90
42365;DHT22;28498;54.400;18.566;2023-02-01T08:34:49;4.60;99.90
42365;DHT22;28498;54.400;18.566;2023-02-01T08:37:16;4.50;99.90
42365;DHT22;28498;54.400;18.566;2023-02-01T08:39:43;4.40;99.90
42365;DHT22;28498;54.400;18.566;2023-02-01T08:42:13;4.40;99.90
42365;DHT22;28498;54.400;18.566;2023-02-01T08:45:20;4.40;99.90
42365;DHT22;28498;54.400;18.566;2023-02-01T08:47:48;4.40;99.90
42365;DHT22;28498;54.400;18.566;2023-02-01T08:50:15;4.50;99.90
42365;DHT22;28498;54.400;18.566;2023-02-01T08:52:43;4.60;99.90
42365;DHT22;28498;54.400;18.566;2023-02-01T08:55:11;4.60;99.90
42365;DHT22;28498;54.400;18.566;2023-02-01T08:57:38;4.70;99.90
42365;DHT22;28498;54.400;18.566;2023-02-01T09:00:07;4.70;99.90
42365;DHT22;28498;54.400;18.566;2023-02-01T09:02:35;4.70;99.90
42365;DHT22;28498;54.400;18.566;2023-02-01T09:05:03;4.80;99.90
42365;DHT22;28498;54.400;18.566;2023-02-01T09:07:31;4.90;99.90
42365;DHT22;28498;54.400;18.566;2023-02-01T09:09:58;5.20;99.90
42365;DHT22;28498;54.400;18.566;2023-02-01T09:12:29;5.10;99.90
42365;DHT22;28498;54.400;18.566;2023-02-01T09:14:57;4.90;99.90
42365;DHT22;28498;54.400;18.566;2023-02-01T09:17:27;5.00;99.90
42365;DHT22;28498;54.400;18.566;2023-02-01T09:19:55;5.00;99.90
42365;DHT22;28498;54.400;18.566;2023-02-01T09:22:22;5.00;99.90
42365;DHT22;28498;54.400;18.566;2023-02-01T09:24:49;5.00;99.90
42365;DHT22;28498;54.400;18.566;2023-02-01T09:27:16;4.90;99.90
42365;DHT22;28498;54.400;18.566;2023-02-01T09:29:43;5.00;99.90
42365;DHT22;28498;54.400;18.566;2023-02-01T09:32:10;5.00;99.90
42365;DHT22;28498;54.400;18.566;2023-02-01T09:34:37;5.00;99.90
42365;DHT22;28498;54.400;18.566;2023-02-01T09:37:04;5.00;99.90
42365;DHT22;28498;54.400;18.566;2023-02-01T09:39:31;5.10;99.90
42365;DHT22;28498;54.400;18.566;2023-02-01T09:43:00;5.20;99.90
42365;DHT22;28498;54.400;18.566;2023-02-01T09:45:21;5.20;99.90
42365;DHT22;28498;54.400;18.566;2023-02-01T09:47:59;5.10;99.90
42365;DHT22;28498;54.400;18.566;2023-02-01T09:50:37;5.10;99.90
42365;DHT22;28498;54.400;18.566;2023-02-01T09:53:18;5.30;99.90
42365;DHT22;28498;54.400;18.566;2023-02-01T09:56:00;5.30;99.90
42365;DHT22;28498;54.400;18.566;2023-02-01T09:58:45;5.30;99.90
42365;DHT22;28498;54.400;18.566;2023-02-01T10:01:22;5.30;99.90
42365;DHT22;28498;54.400;18.566;2023-02-01T10:03:54;5.30;99.90
42365;DHT22;28498;54.400;18.566;2023-02-01T10:10:03;5.30;99.90
42365;DHT22;28498;54.400;18.566;2023-02-01T10:12:42;5.20;99.90
42365;DHT22;28498;54.400;18.566;2023-02-01T10:15:23;5.20;99.90
42365;DHT22;28498;54.400;18.566;2023-02-01T10:29:34;6.00;99.90
42365;DHT22;28498;54.400;18.566;2023-02-01T10:31:42;6.10;99.90
42365;DHT22;28498;54.400;18.566;2023-02-01T10:36:53;6.00;99.90
42365;DHT22;28498;54.400;18.566;2023-02-01T10:39:21;5.80;99.90
42365;DHT22;28498;54.400;18.566;2023-02-01T10:41:49;5.50;99.90
42365;DHT22;28498;54.400;18.566;2023-02-01T10:44:19;5.30;99.90
42365;DHT22;28498;54.400;18.566;2023-02-01T10:46:50;5.10;99.90
42365;DHT22;28498;54.400;18.566;2023-02-01T10:49:45;5.10;99.90
42365;DHT22;28498;54.400;18.566;2023-02-01T10:52:21;5.00;99.90
42365;DHT22;28498;54.400;18.566;2023-02-01T10:54:53;4.90;99.90
42365;DHT22;28498;54.400;18.566;2023-02-01T10:57:26;4.80;99.90
42365;DHT22;28498;54.400;18.566;2023-02-01T10:59:55;4.70;99.90
42365;DHT22;28498;54.400;18.566;2023-02-01T11:02:29;4.70;99.90
42365;DHT22;28498;54.400;18.566;2023-02-01T11:05:02;4.70;99.90
42365;DHT22;28498;54.400;18.566;2023-02-01T11:07:30;4.90;99.90
42365;DHT22;28498;54.400;18.566;2023-02-01T11:09:57;4.90;99.90
42365;DHT22;28498;54.400;18.566;2023-02-01T11:15:22;5.10;99.90
42365;DHT22;28498;54.400;18.566;2023-02-01T11:17:51;5.10;99.90
42365;DHT22;28498;54.400;18.566;2023-02-01T11:22:59;5.10;99.90
42365;DHT22;28498;54.400;18.566;2023-02-01T11:25:26;4.90;99.90
42365;DHT22;28498;54.400;18.566;2023-02-01T11:27:55;4.80;99.90
42365;DHT22;28498;54.400;18.566;2023-02-01T11:30:36;4.60;99.90
42365;DHT22;28498;54.400;18.566;2023-02-01T11:33:05;4.30;99.90
42365;DHT22;28498;54.400;18.566;2023-02-01T11:35:37;4.30;99.90
42365;DHT22;28498;54.400;18.566;2023-02-01T11:38:23;4.10;99.90
42365;DHT22;28498;54.400;18.566;2023-02-01T11:40:51;4.20;99.90
42365;DHT22;28498;54.400;18.566;2023-02-01T11:43:25;4.00;99.90
42365;DHT22;28498;54.400;18.566;2023-02-01T11:46:01;4.00;99.90
42365;DHT22;28498;54.400;18.566;2023-02-01T11:48:31;4.00;99.90
42365;DHT22;28498;54.400;18.566;2023-02-01T11:51:29;4.00;99.90
42365;DHT22;28498;54.400;18.566;2023-02-01T11:54:14;3.80;99.90
42365;DHT22;28498;54.400;18.566;2023-02-01T12:08:40;3.10;99.90
42365;DHT22;28498;54.400;18.566;2023-02-01T12:22:16;3.10;99.90
42365;DHT22;28498;54.400;18.566;2023-02-01T12:27:41;2.90;99.90
42365;DHT22;28498;54.400;18.566;2023-02-01T12:46:41;2.40;99.90
42365;DHT22;28498;54.400;18.566;2023-02-01T12:52:32;2.10;99.90
42365;DHT22;28498;54.400;18.566;2023-02-01T12:55:22;2.10;99.90
42365;DHT22;28498;54.400;18.566;2023-02-01T13:00:42;2.30;99.90
42365;DHT22;28498;54.400;18.566;2023-02-01T13:03:33;2.30;99.90
42365;DHT22;28498;54.400;18.566;2023-02-01T13:06:21;2.40;99.90
42365;DHT22;28498;54.400;18.566;2023-02-01T13:09:00;2.40;99.90
42365;DHT22;28498;54.400;18.566;2023-02-01T13:11:31;2.40;99.90
42365;DHT22;28498;54.400;18.566;2023-02-01T13:21:49;2.60;99.90
42365;DHT22;28498;54.400;18.566;2023-02-01T13:26:55;2.60;99.90
42365;DHT22;28498;54.400;18.566;2023-02-01T13:29:23;2.60;99.90
42365;DHT22;28498;54.400;18.566;2023-02-01T13:32:12;2.60;99.90
42365;DHT22;28498;54.400;18.566;2023-02-01T13:40:23;2.70;99.90
42365;DHT22;28498;54.400;18.566;2023-02-01T13:43:00;2.70;99.90
42365;DHT22;28498;54.400;18.566;2023-02-01T13:45:31;2.80;99.90
42365;DHT22;28498;54.400;18.566;2023-02-01T13:48:03;2.70;99.90
42365;DHT22;28498;54.400;18.566;2023-02-01T13:50:37;2.80;99.90
42365;DHT22;28498;54.400;18.566;2023-02-01T13:55:45;2.80;99.90
42365;DHT22;28498;54.400;18.566;2023-02-01T13:58:22;2.70;99.90
42365;DHT22;28498;54.400;18.566;2023-02-01T14:03:55;2.80;99.90
42365;DHT22;28498;54.400;18.566;2023-02-01T14:09:17;2.90;99.90
42365;DHT22;28498;54.400;18.566;2023-02-01T14:19:45;3.00;99.90
42365;DHT22;28498;54.400;18.566;2023-02-01T14:24:55;3.10;99.90
42365;DHT22;28498;54.400;18.566;2023-02-01T14:27:29;3.20;99.90
42365;DHT22;28498;54.400;18.566;2023-02-01T14:30:04;3.20;99.90
42365;DHT22;28498;54.400;18.566;2023-02-01T14:32:35;3.20;99.90
42365;DHT22;28498;54.400;18.566;2023-02-01T14:35:07;3.20;99.90
42365;DHT22;28498;54.400;18.566;2023-02-01T14:37:37;3.20;99.90
42365;DHT22;28498;54.400;18.566;2023-02-01T14:53:14;2.80;99.90
42365;DHT22;28498;54.400;18.566;2023-02-01T14:58:55;2.70;99.90
42365;DHT22;28498;54.400;18.566;2023-02-01T15:06:42;2.70;99.90
42365;DHT22;28498;54.400;18.566;2023-02-01T15:14:33;2.60;99.90
42365;DHT22;28498;54.400;18.566;2023-02-01T15:17:01;2.50;99.90
42365;DHT22;28498;54.400;18.566;2023-02-01T15:19:29;2.40;99.90
42365;DHT22;28498;54.400;18.566;2023-02-01T15:21:59;2.30;99.90
42365;DHT22;28498;54.400;18.566;2023-02-01T15:24:29;2.20;99.90
42365;DHT22;28498;54.400;18.566;2023-02-01T15:27:03;2.10;99.90
42365;DHT22;28498;54.400;18.566;2023-02-01T15:29:31;2.20;99.90
42365;DHT22;28498;54.400;18.566;2023-02-01T15:32:01;2.20;99.90
42365;DHT22;28498;54.400;18.566;2023-02-01T15:34:49;2.20;99.90
42365;DHT22;28498;54.400;18.566;2023-02-01T15:37:16;2.20;99.90
42365;DHT22;28498;54.400;18.566;2023-02-01T15:40:05;2.30;99.90
42365;DHT22;28498;54.400;18.566;2023-02-01T15:42:35;2.30;99.90
42365;DHT22;28498;54.400;18.566;2023-02-01T15:45:03;2.40;99.90
42365;DHT22;28498;54.400;18.566;2023-02-01T15:47:31;2.40;99.90
42365;DHT22;28498;54.400;18.566;2023-02-01T15:50:00;2.40;99.90
42365;DHT22;28498;54.400;18.566;2023-02-01T15:52:39;2.40;99.90
42365;DHT22;28498;54.400;18.566;2023-02-01T15:55:38;2.50;99.90
42365;DHT22;28498;54.400;18.566;2023-02-01T15:58:18;2.50;99.90
42365;DHT22;28498;54.400;18.566;2023-02-01T16:00:55;2.30;99.90
42365;DHT22;28498;54.400;18.566;2023-02-01T16:03:41;2.30;99.90
42365;DHT22;28498;54.400;18.566;2023-02-01T16:06:25;2.20;99.90
42365;DHT22;28498;54.400;18.566;2023-02-01T16:09:02;2.30;99.90
42365;DHT22;28498;54.400;18.566;2023-02-01T16:11:32;2.20;99.90
42365;DHT22;28498;54.400;18.566;2023-02-01T16:14:06;2.10;99.90
42365;DHT22;28498;54.400;18.566;2023-02-01T16:16:33;2.10;99.90
42365;DHT22;28498;54.400;18.566;2023-02-01T16:19:00;2.10;99.90
42365;DHT22;28498;54.400;18.566;2023-02-01T16:21:27;2.00;99.90
42365;DHT22;28498;54.400;18.566;2023-02-01T16:23:54;2.10;99.90
42365;DHT22;28498;54.400;18.566;2023-02-01T16:26:21;2.10;99.90
42365;DHT22;28498;54.400;18.566;2023-02-01T16:28:49;2.20;99.90
42365;DHT22;28498;54.400;18.566;2023-02-01T16:31:25;2.10;99.90
42365;DHT22;28498;54.400;18.566;2023-02-01T16:33:53;2.20;99.90
42365;DHT22;28498;54.400;18.566;2023-02-01T16:36:20;2.20;99.90
42365;DHT22;28498;54.400;18.566;2023-02-01T16:38:48;2.20;99.90
42365;DHT22;28498;54.400;18.566;2023-02-01T16:41:18;2.20;99.90
42365;DHT22;28498;54.400;18.566;2023-02-01T16:43:45;2.10;99.90
42365;DHT22;28498;54.400;18.566;2023-02-01T16:46:18;2.10;99.90
42365;DHT22;28498;54.400;18.566;2023-02-01T16:48:56;2.20;99.90
42365;DHT22;28498;54.400;18.566;2023-02-01T16:51:26;2.20;99.90
42365;DHT22;28498;54.400;18.566;2023-02-01T16:53:55;2.20;99.90
42365;DHT22;28498;54.400;18.566;2023-02-01T16:56:29;2.20;99.90
42365;DHT22;28498;54.400;18.566;2023-02-01T16:58:57;2.50;99.90
42365;DHT22;28498;54.400;18.566;2023-02-01T17:01:24;2.50;99.90
42365;DHT22;28498;54.400;18.566;2023-02-01T17:03:52;2.50;99.90
42365;DHT22;28498;54.400;18.566;2023-02-01T17:06:24;2.50;99.90
42365;DHT22;28498;54.400;18.566;2023-02-01T17:08:54;2.50;99.90
42365;DHT22;28498;54.400;18.566;2023-02-01T17:11:22;2.50;99.90
42365;DHT22;28498;54.400;18.566;2023-02-01T17:13:49;2.60;99.90
42365;DHT22;28498;54.400;18.566;2023-02-01T17:16:27;2.60;99.90
42365;DHT22;28498;54.400;18.566;2023-02-01T17:19:24;2.60;99.90
42365;DHT22;28498;54.400;18.566;2023-02-01T17:21:53;2.60;99.90
42365;DHT22;28498;54.400;18.566;2023-02-01T17:24:25;2.50;99.90
42365;DHT22;28498;54.400;18.566;2023-02-01T17:27:01;2.50;99.90
42365;DHT22;28498;54.400;18.566;2023-02-01T17:29:30;2.50;99.90
42365;DHT22;28498;54.400;18.566;2023-02-01T17:31:57;2.40;99.90
42365;DHT22;28498;54.400;18.566;2023-02-01T17:34:26;2.40;99.90
42365;DHT22;28498;54.400;18.566;2023-02-01T17:36:54;2.30;99.90
42365;DHT22;28498;54.400;18.566;2023-02-01T17:39:21;2.30;99.90
42365;DHT22;28498;54.400;18.566;2023-02-01T17:42:11;2.40;99.90
42365;DHT22;28498;54.400;18.566;2023-02-01T17:44:38;2.50;99.90
42365;DHT22;28498;54.400;18.566;2023-02-01T17:47:05;2.40;99.90
42365;DHT22;28498;54.400;18.566;2023-02-01T17:49:32;2.30;99.90
42365;DHT22;28498;54.400;18.566;2023-02-01T17:52:01;2.20;99.90
42365;DHT22;28498;54.400;18.566;2023-02-01T17:54:28;2.20;99.90
42365;DHT22;28498;54.400;18.566;2023-02-01T17:56:55;2.30;99.90
42365;DHT22;28498;54.400;18.566;2023-02-01T17:59:26;2.40;99.90
42365;DHT22;28498;54.400;18.566;2023-02-01T18:01:53;2.40;99.90
42365;DHT22;28498;54.400;18.566;2023-02-01T18:04:26;2.50;99.90
42365;DHT22;28498;54.400;18.566;2023-02-01T18:06:53;2.60;99.90
42365;DHT22;28498;54.400;18.566;2023-02-01T18:09:20;2.60;99.90
42365;DHT22;28498;54.400;18.566;2023-02-01T18:11:47;2.70;99.90
42365;DHT22;28498;54.400;18.566;2023-02-01T18:14:16;2.70;99.90
42365;DHT22;28498;54.400;18.566;2023-02-01T18:16:43;2.70;99.90
42365;DHT22;28498;54.400;18.566;2023-02-01T18:19:10;2.80;99.90
42365;DHT22;28498;54.400;18.566;2023-02-01T18:21:40;2.80;99.90
42365;DHT22;28498;54.400;18.566;2023-02-01T18:24:12;2.80;99.90
42365;DHT22;28498;54.400;18.566;2023-02-01T18:26:40;2.90;99.90
42365;DHT22;28498;54.400;18.566;2023-02-01T18:29:08;2.90;99.90
42365;DHT22;28498;54.400;18.566;2023-02-01T18:31:39;2.80;99.90
42365;DHT22;28498;54.400;18.566;2023-02-01T18:34:09;2.80;99.90
42365;DHT22;28498;54.400;18.566;2023-02-01T18:36:36;2.80;99.90
42365;DHT22;28498;54.400;18.566;2023-02-01T18:39:03;2.80;99.90
42365;DHT22;28498;54.400;18.566;2023-02-01T18:41:30;2.80;99.90
42365;DHT22;28498;54.400;18.566;2023-02-01T18:43:57;2.90;99.90
42365;DHT22;28498;54.400;18.566;2023-02-01T18:46:24;2.80;99.90